Time;durP1;ratioP1;P1;durP2;ratioP2;P2;SDS_P1;SDS_P2;PMS_P1;PMS_P2;Temp;Humidity;BMP_temperature;BMP_pressure;BME280_temperature;BME280_humidity;BME280_pressure;Samples;Min_cycle;Max_cycle;Signal;HPM_P1;HPM_P2
2022/05/29 00:01:21;;;;;;;17.27;3.17;;;;;;;8.62;100.00;101464.28;5043150;28;20166;-84
2022/05/29 00:03:47;;;;;;;13.80;4.03;;;;;;;8.61;100.00;101471.63;5082816;28;20032;-83
2022/05/29 00:06:14;;;;;;;21.75;5.10;;;;;;;8.66;100.00;101471.34;5082935;28;20031;-82
2022/05/29 00:08:42;;;;;;;13.75;3.80;;;;;;;8.52;100.00;101466.72;5097133;28;20388;-83
2022/05/29 00:11:10;;;;;;;15.32;4.45;;;;;;;8.55;100.00;101468.38;5095263;28;20035;-83
2022/05/29 00:13:36;;;;;;;21.10;4.47;;;;;;;8.48;100.00;101464.25;5093346;28;20038;-82
2022/05/29 00:16:03;;;;;;;15.90;4.32;;;;;;;8.62;100.00;101461.56;5112800;28;20029;-82
2022/05/29 00:18:36;;;;;;;21.25;5.00;;;;;;;8.23;100.00;101441.13;5101255;28;20024;-83
2022/05/29 00:21:02;;;;;;;16.73;5.22;;;;;;;8.32;100.00;101447.91;5078494;28;20081;-83
2022/05/29 00:23:28;;;;;;;16.20;5.03;;;;;;;8.24;100.00;101435.59;5094505;28;20031;-85
2022/05/29 00:25:54;;;;;;;22.67;5.95;;;;;;;8.46;100.00;101450.69;5097485;28;20035;-84
2022/05/29 00:28:22;;;;;;;18.23;5.20;;;;;;;8.48;100.00;101451.50;5073774;28;20020;-83
2022/05/29 00:30:50;;;;;;;13.80;4.93;;;;;;;8.36;100.00;101431.28;5082875;28;20101;-82
2022/05/29 00:33:15;;;;;;;14.20;4.30;;;;;;;8.38;100.00;101451.16;5094810;28;20025;-83
2022/05/29 00:35:42;;;;;;;24.13;4.97;;;;;;;8.39;100.00;101441.97;5091149;28;20047;-83
2022/05/29 00:38:10;;;;;;;22.23;5.07;;;;;;;8.40;100.00;101445.59;5076345;28;20044;-83
2022/05/29 00:40:51;;;;;;;17.95;4.93;;;;;;;8.22;100.00;101434.81;5092220;28;20047;-84
2022/05/29 00:43:16;;;;;;;17.67;4.38;;;;;;;8.33;100.00;101441.47;5066756;28;20074;-83
2022/05/29 00:45:59;;;;;;;18.58;4.40;;;;;;;8.39;100.00;101422.88;5069228;28;20016;-83
2022/05/29 00:48:25;;;;;;;23.02;5.55;;;;;;;8.49;100.00;101436.88;5092053;28;20028;-84
2022/05/29 00:50:54;;;;;;;37.25;5.70;;;;;;;8.37;100.00;101434.88;5048916;28;20131;-83
2022/05/29 00:53:22;;;;;;;28.38;6.15;;;;;;;8.55;100.00;101438.34;5090304;28;20036;-83
2022/05/29 00:55:55;;;;;;;19.70;4.53;;;;;;;8.49;100.00;101417.75;5068934;28;20027;-83
2022/05/29 00:58:23;;;;;;;19.42;5.47;;;;;;;8.43;100.00;101423.63;5077637;28;20036;-82
2022/05/29 01:00:50;;;;;;;18.00;5.18;;;;;;;8.62;100.00;101421.53;5074598;28;20028;-84
2022/05/29 01:03:16;;;;;;;18.70;4.90;;;;;;;8.33;100.00;101382.34;5091001;28;20167;-84
2022/05/29 01:05:41;;;;;;;21.02;5.38;;;;;;;8.52;100.00;101408.53;5094283;28;20039;-84
2022/05/29 01:08:21;;;;;;;29.20;5.97;;;;;;;8.53;100.00;101397.50;5093963;28;20035;-84
2022/05/29 01:10:55;;;;;;;27.67;7.88;;;;;;;8.64;100.00;101415.94;5097136;28;20021;-84
2022/05/29 01:13:39;;;;;;;22.10;5.20;;;;;;;8.64;100.00;101402.28;5068631;28;20031;-83
2022/05/29 01:16:34;;;;;;;12.73;6.15;;;;;;;8.68;100.00;101401.13;5091417;28;20032;-84
2022/05/29 01:19:18;;;;;;;25.00;6.18;;;;;;;8.69;100.00;101400.19;5054125;28;20082;-83
2022/05/29 01:21:58;;;;;;;17.35;5.60;;;;;;;8.72;100.00;101401.81;5083311;28;20051;-83
2022/05/29 01:24:57;;;;;;;24.05;6.63;;;;;;;8.80;100.00;101396.75;5067793;28;20151;-83
2022/05/29 01:27:52;;;;;;;29.27;6.03;;;;;;;8.61;100.00;101395.19;5070520;28;20029;-84
2022/05/29 01:30:21;;;;;;;19.65;5.80;;;;;;;8.74;100.00;101388.94;5090897;28;20028;-82
2022/05/29 01:33:02;;;;;;;21.40;6.53;;;;;;;8.80;100.00;101394.88;5089895;28;20028;-83
2022/05/29 01:35:45;;;;;;;17.77;5.40;;;;;;;8.70;100.00;101392.84;5071231;28;20031;-83
2022/05/29 01:38:21;;;;;;;16.40;5.22;;;;;;;8.63;100.00;101395.97;5074303;28;20020;-83
2022/05/29 01:40:54;;;;;;;28.45;5.93;;;;;;;8.78;100.00;101394.13;5078651;28;20043;-83
2022/05/29 01:43:27;;;;;;;19.58;5.35;;;;;;;8.75;100.00;101394.31;5083083;28;20028;-83
2022/05/29 01:46:07;;;;;;;26.33;6.18;;;;;;;8.62;100.00;101368.75;5068717;28;20037;-84
2022/05/29 01:48:38;;;;;;;26.63;6.15;;;;;;;8.80;100.00;101402.22;5067717;28;20110;-84
2022/05/29 01:51:25;;;;;;;31.88;6.20;;;;;;;8.79;100.00;101395.88;5066186;28;20032;-83
2022/05/29 01:54:26;;;;;;;35.65;5.85;;;;;;;8.93;100.00;101389.53;5099237;28;20024;-84
2022/05/29 01:56:57;;;;;;;35.20;6.63;;;;;;;8.85;100.00;101385.53;5086224;28;20059;-83
2022/05/29 01:59:32;;;;;;;24.88;6.60;;;;;;;8.89;100.00;101371.59;5072403;28;20051;-85
2022/05/29 02:02:03;;;;;;;29.58;7.78;;;;;;;9.03;100.00;101381.63;5080211;28;20035;-84
2022/05/29 02:04:34;;;;;;;46.75;6.50;;;;;;;9.00;100.00;101370.91;5085824;28;20028;-84
2022/05/29 02:09:58;;;;;;;22.38;6.22;;;;;;;9.02;100.00;101356.19;5080751;28;20037;-82
2022/05/29 02:12:26;;;;;;;29.58;7.18;;;;;;;9.01;100.00;101364.47;5072420;28;20092;-83
2022/05/29 02:15:01;;;;;;;23.92;6.45;;;;;;;8.86;100.00;101339.03;5084388;28;20032;-84
2022/05/29 02:17:34;;;;;;;34.00;6.70;;;;;;;9.10;100.00;101357.53;5071013;28;20507;-83
2022/05/29 02:20:07;;;;;;;23.63;6.55;;;;;;;9.14;100.00;101348.16;5075662;28;20031;-84
2022/05/29 02:22:45;;;;;;;48.22;7.18;;;;;;;9.11;100.00;101360.16;5085774;28;20032;-83
2022/05/29 02:25:16;;;;;;;24.92;6.15;;;;;;;9.05;100.00;101343.28;5094104;28;20100;-83
2022/05/29 02:27:50;;;;;;;28.17;8.07;;;;;;;9.17;100.00;101367.97;5083985;28;20029;-84
2022/05/29 02:30:16;;;;;;;31.00;7.70;;;;;;;9.19;100.00;101356.94;5075074;28;20047;-83
2022/05/29 02:33:17;;;;;;;21.23;6.30;;;;;;;9.30;100.00;101353.53;5081337;28;20032;-84
2022/05/29 02:36:23;;;;;;;37.22;7.40;;;;;;;9.15;100.00;101347.16;5082007;28;20032;-83
2022/05/29 02:39:07;;;;;;;31.92;7.32;;;;;;;9.15;100.00;101341.72;5065042;28;20028;-84
2022/05/29 02:41:46;;;;;;;37.45;8.15;;;;;;;9.22;100.00;101342.22;5066912;28;20047;-84
2022/05/29 02:44:31;;;;;;;21.70;6.82;;;;;;;9.17;100.00;101347.97;5084337;28;20033;-82
2022/05/29 02:47:23;;;;;;;37.22;7.80;;;;;;;9.20;100.00;101348.66;5082934;28;20036;-84
2022/05/29 02:50:08;;;;;;;34.22;6.60;;;;;;;9.03;100.00;101348.84;5068190;28;20127;-83
2022/05/29 02:52:34;;;;;;;31.45;8.25;;;;;;;9.25;100.00;101341.97;5080333;28;20028;-85
2022/05/29 02:54:59;;;;;;;29.70;7.20;;;;;;;9.18;100.00;101342.41;5041530;28;20043;-84
2022/05/29 02:57:25;;;;;;;27.40;6.40;;;;;;;9.17;100.00;101328.84;5085375;28;20044;-83
2022/05/29 02:59:57;;;;;;;23.95;8.15;;;;;;;9.01;100.00;101328.97;5065368;28;20180;-84
2022/05/29 03:02:29;;;;;;;28.95;7.00;;;;;;;9.16;100.00;101333.41;5071804;28;20056;-86
2022/05/29 03:05:04;;;;;;;33.72;7.53;;;;;;;9.17;100.00;101334.31;5076089;28;20016;-83
2022/05/29 03:07:39;;;;;;;25.92;7.03;;;;;;;9.11;100.00;101332.84;5065325;28;20048;-83
2022/05/29 03:10:20;;;;;;;27.25;7.72;;;;;;;9.19;100.00;101335.09;5095940;28;20029;-83
2022/05/29 03:13:24;;;;;;;29.95;7.10;;;;;;;9.20;100.00;101326.78;5089059;28;20481;-83
2022/05/29 03:16:15;;;;;;;23.88;7.07;;;;;;;9.07;100.00;101334.03;5081767;28;20039;-83
2022/05/29 03:19:14;;;;;;;16.40;6.07;;;;;;;9.17;100.00;101329.72;5082091;28;20039;-83
2022/05/29 03:22:08;;;;;;;30.20;6.43;;;;;;;9.13;100.00;101321.81;5068532;28;21075;-83
2022/05/29 03:24:33;;;;;;;;;;;;;;;9.29;100.00;101327.16;5085108;28;20131;-83
2022/05/29 03:27:34;;;;;;;22.40;5.10;;;;;;;9.19;100.00;101327.75;5070039;28;19955;-84
2022/05/29 03:30:12;;;;;;;21.55;5.15;;;;;;;9.11;100.00;101319.19;5080320;28;20036;-83
2022/05/29 03:32:38;;;;;;;16.45;5.63;;;;;;;9.21;100.00;101327.66;5088080;28;20458;-81
2022/05/29 03:35:28;;;;;;;26.63;5.32;;;;;;;9.18;100.00;101326.03;5079308;28;20040;-83
2022/05/29 03:37:57;;;;;;;21.20;5.57;;;;;;;9.23;100.00;101322.09;5080251;28;20048;-82
2022/05/29 03:40:28;;;;;;;25.75;5.35;;;;;;;9.27;100.00;101321.78;5066073;28;20055;-82
2022/05/29 03:42:55;;;;;;;29.27;7.82;;;;;;;9.15;100.00;101320.75;5095485;28;20031;-83
2022/05/29 03:45:22;;;;;;;26.38;5.22;;;;;;;9.32;100.00;101324.22;5061000;28;20169;-83
2022/05/29 03:47:48;;;;;;;25.38;4.72;;;;;;;9.18;100.00;101319.66;5065426;28;20476;-83
2022/05/29 03:50:16;;;;;;;27.85;5.72;;;;;;;9.22;100.00;101310.28;5088009;28;20038;-85
2022/05/29 03:52:44;;;;;;;18.38;4.68;;;;;;;9.28;100.00;101314.47;5082158;28;20044;-82
2022/05/29 03:55:10;;;;;;;25.50;6.07;;;;;;;9.34;100.00;101316.78;5078121;28;20024;-84
2022/05/29 03:57:36;;;;;;;23.00;5.90;;;;;;;9.31;100.00;101309.69;5076071;28;20047;-83
2022/05/29 04:00:04;;;;;;;25.55;6.32;;;;;;;9.23;100.00;101294.78;5074792;28;20033;-84
2022/05/29 04:02:29;;;;;;;17.48;4.70;;;;;;;9.45;100.00;101321.56;5083424;28;20057;-83
2022/05/29 04:04:55;;;;;;;26.73;4.82;;;;;;;9.39;100.00;101320.09;5086134;28;20044;-83
2022/05/29 04:12:03;;;;;;;24.45;5.07;;;;;;;9.36;100.00;101309.38;5080375;28;20040;-83
2022/05/29 04:12:51;;;;;;;20.63;4.55;;;;;;;9.11;100.00;101288.28;5083345;28;20028;-83
2022/05/29 04:15:16;;;;;;;21.65;4.85;;;;;;;9.10;100.00;101286.50;5059332;28;20452;-82
2022/05/29 04:17:42;;;;;;;21.83;4.72;;;;;;;9.33;100.00;101301.38;5083384;28;20181;-83
2022/05/29 04:20:08;;;;;;;19.48;4.90;;;;;;;9.53;100.00;101313.72;5080523;28;20035;-84
2022/05/29 04:22:34;;;;;;;23.10;4.40;;;;;;;9.40;100.00;101310.94;5063499;28;20029;-83
2022/05/29 04:25:00;;;;;;;27.33;4.63;;;;;;;9.46;100.00;101313.25;5071523;28;20548;-84
2022/05/29 04:27:26;;;;;;;20.02;5.18;;;;;;;9.46;100.00;101307.78;5067898;28;20029;-85
2022/05/29 04:29:51;;;;;;;15.73;5.00;;;;;;;9.29;100.00;101310.75;5065621;28;20119;-84
2022/05/29 04:35:04;;;;;;;20.77;5.72;;;;;;;9.25;100.00;101309.19;5086701;28;20051;-84
2022/05/29 04:37:32;;;;;;;25.67;5.40;;;;;;;9.18;100.00;101306.00;5090664;28;20039;-83
2022/05/29 04:39:59;;;;;;;24.98;5.60;;;;;;;9.25;100.00;101309.19;5056962;28;20356;-82
2022/05/29 04:42:24;;;;;;;28.17;5.85;;;;;;;9.24;100.00;101313.78;5059546;28;20036;-84
2022/05/29 04:44:50;;;;;;;14.00;5.13;;;;;;;9.10;100.00;101301.06;5090168;28;20422;-83
2022/05/29 04:47:15;;;;;;;18.27;5.80;;;;;;;9.28;100.00;101301.69;5063953;28;20032;-82
2022/05/29 04:49:41;;;;;;;18.33;6.15;;;;;;;9.22;100.00;101299.38;5082725;28;20082;-81
2022/05/29 04:52:09;;;;;;;17.50;5.70;;;;;;;9.19;100.00;101299.56;5078746;28;20045;-81
2022/05/29 04:54:35;;;;;;;15.45;5.38;;;;;;;9.15;100.00;101292.53;5086576;28;20044;-80
2022/05/29 04:57:02;;;;;;;22.08;6.55;;;;;;;9.25;100.00;101293.69;5078889;28;20117;-80
2022/05/29 04:59:27;;;;;;;21.58;6.00;;;;;;;9.18;100.00;101301.44;5071129;28;20040;-80
2022/05/29 05:01:55;;;;;;;18.60;5.63;;;;;;;9.14;100.00;101288.06;5057324;28;20036;-83
2022/05/29 05:04:21;;;;;;;23.40;5.47;;;;;;;9.17;100.00;101291.47;5058034;28;20029;-83
2022/05/29 05:06:46;;;;;;;29.35;6.95;;;;;;;9.01;100.00;101285.28;5075354;28;20033;-82
2022/05/29 05:09:12;;;;;;;16.33;5.63;;;;;;;9.16;100.00;101294.31;5073218;28;20391;-83
2022/05/29 05:11:38;;;;;;;12.63;5.15;;;;;;;9.19;100.00;101294.09;5098076;28;20539;-82
2022/05/29 05:14:04;;;;;;;19.08;5.13;;;;;;;9.10;100.00;101294.69;5057747;28;20116;-83
2022/05/29 05:16:29;;;;;;;20.27;5.07;;;;;;;9.17;100.00;101287.88;5061078;28;20061;-84
2022/05/29 05:18:55;;;;;;;24.20;6.35;;;;;;;9.14;100.00;101286.22;5082918;28;20100;-82
2022/05/29 05:21:21;;;;;;;15.95;5.47;;;;;;;9.15;100.00;101285.25;5058483;28;20491;-82
2022/05/29 05:23:47;;;;;;;16.08;4.72;;;;;;;9.10;100.00;101284.66;5082153;28;20048;-83
2022/05/29 05:26:15;;;;;;;20.80;5.57;;;;;;;9.00;100.00;101280.78;5058975;28;20032;-82
2022/05/29 05:28:41;;;;;;;16.33;5.68;;;;;;;9.37;100.00;101283.81;5071871;28;20035;-83
2022/05/29 05:31:07;;;;;;;21.20;5.45;;;;;;;9.29;100.00;101277.97;5077971;28;20036;-82
2022/05/29 05:33:32;;;;;;;18.38;5.70;;;;;;;9.40;100.00;101285.47;5071756;28;20029;-83
2022/05/29 05:35:58;;;;;;;18.48;5.82;;;;;;;9.31;100.00;101276.00;5053615;28;20063;-83
2022/05/29 05:38:24;;;;;;;17.02;5.43;;;;;;;9.26;100.00;101272.72;5072136;28;20468;-82
2022/05/29 05:40:49;;;;;;;15.05;5.50;;;;;;;9.40;100.00;101280.88;5089275;28;20033;-83
2022/05/29 05:43:15;;;;;;;16.45;5.30;;;;;;;9.46;100.00;101280.47;5080058;28;21196;-81
2022/05/29 05:45:42;;;;;;;11.82;5.05;;;;;;;9.62;100.00;101269.34;5078566;28;20088;-81
2022/05/29 05:48:08;;;;;;;16.85;5.07;;;;;;;9.74;100.00;101268.50;5087483;28;20039;-81
2022/05/29 05:50:34;;;;;;;13.82;6.00;;;;;;;9.90;100.00;101272.91;5059282;28;20067;-84
2022/05/29 05:53:00;;;;;;;12.27;5.43;;;;;;;9.90;100.00;101270.16;5091676;28;20022;-83
2022/05/29 05:55:26;;;;;;;16.95;6.15;;;;;;;9.91;100.00;101275.53;5071367;28;20548;-83
2022/05/29 05:57:53;;;;;;;12.52;5.30;;;;;;;9.85;100.00;101277.81;5091270;28;20040;-82
2022/05/29 06:00:19;;;;;;;15.63;5.18;;;;;;;10.00;100.00;101268.56;5077170;28;20451;-80
2022/05/29 06:02:44;;;;;;;13.88;4.53;;;;;;;10.18;100.00;101269.09;5088218;28;20025;-82
2022/05/29 06:05:13;;;;;;;10.75;4.05;;;;;;;10.19;100.00;101278.19;5056145;28;20478;-84
2022/05/29 06:07:39;;;;;;;12.05;4.20;;;;;;;10.23;100.00;101268.75;5071735;28;20088;-81
2022/05/29 06:10:05;;;;;;;17.70;5.60;;;;;;;10.24;100.00;101273.25;5079343;28;20036;-81
2022/05/29 06:12:37;;;;;;;19.13;5.20;;;;;;;10.23;100.00;101261.44;5079012;28;20024;-83
2022/05/29 06:15:04;;;;;;;14.98;4.45;;;;;;;10.21;100.00;101288.03;5067368;28;20052;-82
2022/05/29 06:17:31;;;;;;;10.15;3.72;;;;;;;10.22;100.00;101286.19;5086749;28;20036;-81
2022/05/29 06:19:56;;;;;;;12.98;3.85;;;;;;;10.39;100.00;101285.88;5078735;28;20031;-83
2022/05/29 06:22:22;;;;;;;9.32;3.38;;;;;;;10.36;100.00;101279.75;5075502;28;20028;-84
2022/05/29 06:24:47;;;;;;;11.90;3.22;;;;;;;10.40;100.00;101278.56;5055524;28;20051;-82
2022/05/29 06:27:36;;;;;;;4.78;2.65;;;;;;;10.37;100.00;101289.72;5067736;28;20105;-83
2022/05/29 06:30:02;;;;;;;8.13;2.75;;;;;;;10.36;100.00;101288.81;5061174;28;20036;-85
2022/05/29 06:32:28;;;;;;;6.18;2.58;;;;;;;10.32;100.00;101291.88;5050782;28;20032;-83
2022/05/29 06:34:54;;;;;;;8.90;3.10;;;;;;;10.47;100.00;101291.69;5063587;28;20040;-83
2022/05/29 06:37:20;;;;;;;8.80;3.35;;;;;;;10.11;100.00;101276.00;5091508;28;20028;-83
2022/05/29 06:39:47;;;;;;;4.97;2.17;;;;;;;10.56;100.00;101289.25;5064538;28;20040;-84
2022/05/29 06:42:13;;;;;;;8.55;2.50;;;;;;;10.91;100.00;101294.91;5055053;28;20032;-83
2022/05/29 06:44:40;;;;;;;8.25;2.40;;;;;;;10.57;100.00;101270.00;5038086;28;20029;-83
2022/05/29 06:47:07;;;;;;;7.55;2.17;;;;;;;10.87;100.00;101298.00;5082886;28;20042;-82
2022/05/29 06:49:34;;;;;;;6.57;2.38;;;;;;;10.76;100.00;101301.53;5090134;28;20024;-84
2022/05/29 06:52:00;;;;;;;4.22;1.98;;;;;;;11.00;100.00;101282.41;5082248;28;20083;-82
2022/05/29 06:54:26;;;;;;;5.63;2.30;;;;;;;11.31;100.00;101291.06;5060720;28;20032;-83
2022/05/29 06:56:52;;;;;;;6.93;2.10;;;;;;;11.05;100.00;101277.44;5073214;28;20109;-82
2022/05/29 06:59:17;;;;;;;6.80;2.10;;;;;;;11.02;100.00;101278.56;5057257;28;20036;-83
2022/05/29 07:07:16;;;;;;;3.13;1.98;;;;;;;11.02;100.00;101294.13;5080260;28;20077;-84
2022/05/29 07:09:42;;;;;;;12.93;3.72;;;;;;;11.08;100.00;101299.13;5068984;28;20036;-83
2022/05/29 07:12:24;;;;;;;10.05;2.72;;;;;;;10.73;100.00;101282.59;5077288;28;20395;-82
2022/05/29 07:15:08;;;;;;;9.15;3.20;;;;;;;10.85;100.00;101307.22;5069597;28;20092;-82
2022/05/29 07:17:35;;;;;;;6.60;2.70;;;;;;;10.53;100.00;101306.81;5070903;28;20039;-82
2022/05/29 07:20:00;;;;;;;5.85;3.20;;;;;;;10.35;100.00;101305.41;5069637;28;20028;-79
2022/05/29 07:22:29;;;;;;;6.68;3.60;;;;;;;10.52;100.00;101290.50;5084111;28;20593;-79
2022/05/29 07:24:54;;;;;;;6.18;3.40;;;;;;;10.36;100.00;101294.31;5086006;28;20040;-80
2022/05/29 07:27:20;;;;;;;10.10;3.50;;;;;;;10.39;100.00;101298.69;5070959;28;20032;-81
2022/05/29 07:29:46;;;;;;;8.23;3.40;;;;;;;10.38;100.00;101294.19;5081881;28;20051;-81
2022/05/29 07:32:12;;;;;;;6.68;2.92;;;;;;;10.26;100.00;101295.91;5067191;28;20036;-83
2022/05/29 07:34:37;;;;;;;10.30;3.55;;;;;;;10.35;100.00;101288.97;5079983;28;20119;-82
2022/05/29 07:37:03;;;;;;;11.43;3.60;;;;;;;10.33;100.00;101294.56;5072761;28;20036;-83
2022/05/29 07:39:33;;;;;;;11.45;4.05;;;;;;;10.44;100.00;101291.91;5071713;28;20024;-81
2022/05/29 07:44:43;;;;;;;6.18;2.40;;;;;;;10.70;100.00;101291.03;5069877;28;20028;-81
2022/05/29 07:47:08;;;;;;;6.07;2.45;;;;;;;10.91;100.00;101286.69;5064862;28;20067;-80
2022/05/29 07:49:38;;;;;;;9.23;2.38;;;;;;;11.01;100.00;101286.91;5069878;28;20036;-81
2022/05/29 07:52:04;;;;;;;5.75;2.75;;;;;;;11.18;100.00;101282.88;5085637;28;20066;-82
2022/05/29 07:54:29;;;;;;;3.97;2.47;;;;;;;11.17;100.00;101283.91;5058905;28;20036;-83
2022/05/29 07:57:02;;;;;;;6.93;2.30;;;;;;;11.39;100.00;101284.00;5075838;28;20036;-82
2022/05/29 07:59:29;;;;;;;;;;;;;;;11.64;100.00;101279.41;5060673;28;20055;-83
2022/05/29 08:01:55;;;;;;;7.13;2.00;;;;;;;11.56;100.00;101282.75;5060939;28;19923;-83
2022/05/29 08:04:22;;;;;;;5.07;1.88;;;;;;;11.42;100.00;101282.91;5069382;28;20614;-84
2022/05/29 08:06:49;;;;;;;6.45;2.08;;;;;;;11.67;100.00;101283.78;5098501;28;20028;-83
2022/05/29 08:09:15;;;;;;;4.28;2.63;;;;;;;11.81;100.00;101280.00;5066655;28;20037;-84
2022/05/29 08:11:41;;;;;;;5.65;1.88;;;;;;;11.72;100.00;101276.97;5094648;28;20028;-81
2022/05/29 08:14:07;;;;;;;4.95;2.30;;;;;;;11.70;100.00;101278.91;5092766;28;20097;-81
2022/05/29 08:16:33;;;;;;;6.55;2.65;;;;;;;12.18;100.00;101263.38;5073536;28;21233;-82
2022/05/29 08:18:58;;;;;;;10.68;2.75;;;;;;;13.54;100.00;101270.56;5082172;28;20069;-81
2022/05/29 08:21:24;;;;;;;7.45;2.40;;;;;;;13.32;100.00;101245.84;5102873;28;20352;-83
2022/05/29 08:32:03;;;;;;;6.80;2.28;;;;;;;14.24;100.00;101267.31;5083408;28;20070;-82
2022/05/29 08:34:29;;;;;;;9.10;2.58;;;;;;;15.03;100.00;101262.06;5088172;28;20108;-82
2022/05/29 08:36:55;;;;;;;10.20;2.72;;;;;;;14.94;100.00;101257.41;5095463;28;20040;-83
2022/05/29 08:39:22;;;;;;;10.38;2.92;;;;;;;14.20;100.00;101275.00;5079674;28;20035;-84
2022/05/29 08:41:52;;;;;;;5.55;2.95;;;;;;;13.82;100.00;101270.06;5063557;28;20043;-85
2022/05/29 08:44:24;;;;;;;16.27;3.38;;;;;;;13.48;100.00;101265.56;5079317;28;20020;-83
2022/05/29 08:46:53;;;;;;;10.18;3.65;;;;;;;13.12;100.00;101250.25;5093602;28;20115;-83
2022/05/29 08:49:27;;;;;;;14.15;3.85;;;;;;;12.63;100.00;101249.72;5093856;28;20033;-82
2022/05/29 08:52:25;;;;;;;9.23;3.35;;;;;;;12.41;100.00;101267.94;5078035;28;20028;-83
2022/05/29 08:55:24;;;;;;;15.65;3.63;;;;;;;12.48;100.00;101257.31;5100611;28;20048;-82
2022/05/29 08:58:30;;;;;;;11.77;4.53;;;;;;;12.39;100.00;101260.81;5082821;28;20663;-83
2022/05/29 09:01:33;;;;;;;13.70;4.88;;;;;;;12.23;100.00;101253.81;5086876;28;20086;-83
2022/05/29 09:04:08;;;;;;;18.00;5.18;;;;;;;12.01;100.00;101235.41;5073168;28;20028;-83
2022/05/29 09:06:45;;;;;;;15.57;4.15;;;;;;;11.89;100.00;101253.69;5097064;28;20032;-83
2022/05/29 09:09:11;;;;;;;11.38;4.22;;;;;;;12.02;100.00;101258.22;5091604;28;20043;-82
2022/05/29 09:11:44;;;;;;;10.90;4.55;;;;;;;11.97;100.00;101230.28;5082110;28;20029;-82
2022/05/29 09:14:23;;;;;;;17.58;4.53;;;;;;;12.11;100.00;101260.25;5089691;28;20113;-81
2022/05/29 09:17:02;;;;;;;5.93;3.30;;;;;;;12.04;100.00;101242.53;5099182;28;20024;-81
2022/05/29 09:19:40;;;;;;;11.75;3.58;;;;;;;12.31;100.00;101244.94;5088951;28;20043;-81
2022/05/29 09:22:40;;;;;;;10.45;2.78;;;;;;;12.19;100.00;101240.44;5089471;28;20430;-81
2022/05/29 09:25:32;;;;;;;13.43;3.58;;;;;;;12.33;100.00;101245.72;5058716;28;20044;-82
2022/05/29 09:28:03;;;;;;;7.35;2.33;;;;;;;12.31;100.00;101239.44;5090281;28;20051;-80
2022/05/29 09:30:29;;;;;;;7.38;2.50;;;;;;;12.04;100.00;101235.16;5059980;28;20090;-81
2022/05/29 09:33:01;;;;;;;5.28;2.15;;;;;;;12.43;100.00;101241.22;5083440;28;20047;-81
2022/05/29 09:35:36;;;;;;;2.67;1.60;;;;;;;13.11;100.00;101237.53;5093824;28;20033;-81
2022/05/29 09:38:19;;;;;;;9.15;1.75;;;;;;;14.00;100.00;101232.66;5097851;28;20032;-82
2022/05/29 09:41:16;;;;;;;4.60;1.63;;;;;;;14.43;100.00;101231.63;5090900;28;20404;-81
2022/05/29 09:44:04;;;;;;;6.78;1.60;;;;;;;14.95;100.00;101227.94;5093235;28;20373;-82
2022/05/29 09:46:42;;;;;;;5.60;1.27;;;;;;;14.92;100.00;101225.44;5082984;28;20028;-81
2022/05/29 09:49:40;;;;;;;4.45;1.13;;;;;;;15.20;100.00;101221.91;5086598;28;20039;-82
2022/05/29 09:52:11;;;;;;;5.85;1.83;;;;;;;15.23;100.00;101229.91;5073047;28;20031;-82
2022/05/29 09:55:04;;;;;;;5.45;1.70;;;;;;;15.35;100.00;101222.34;5082661;28;20058;-84
2022/05/29 09:57:42;;;;;;;6.93;2.10;;;;;;;15.91;100.00;101220.78;5071599;28;20048;-84
2022/05/29 10:00:23;;;;;;;24.55;3.03;;;;;;;15.28;100.00;101217.53;5076362;28;20051;-84
2022/05/29 10:02:49;;;;;;;8.18;2.67;;;;;;;14.89;100.00;101207.31;5083456;28;20438;-82
2022/05/29 10:05:29;;;;;;;15.80;2.42;;;;;;;14.66;100.00;101213.03;5058324;28;20114;-81
2022/05/29 10:07:58;;;;;;;13.43;2.78;;;;;;;14.24;100.00;101207.59;5078243;28;20028;-80
2022/05/29 10:10:26;;;;;;;12.82;2.70;;;;;;;14.05;100.00;101216.63;5080853;28;20039;-80
2022/05/29 10:12:57;;;;;;;13.45;3.30;;;;;;;13.33;100.00;101210.00;5106854;28;20152;-81
2022/05/29 10:15:25;;;;;;;11.32;3.85;;;;;;;13.05;100.00;101208.66;5091383;28;20036;-80
2022/05/29 10:18:08;;;;;;;10.13;3.20;;;;;;;13.04;100.00;101209.69;5087966;28;20038;-81
2022/05/29 10:20:35;;;;;;;;;;;;;;;12.85;100.00;101204.84;5080781;28;20053;-80
2022/05/29 10:23:34;;;;;;;13.05;3.78;;;;;;;12.62;100.00;101193.00;5077522;28;19913;-82
2022/05/29 10:26:03;;;;;;;10.73;3.60;;;;;;;12.64;100.00;101191.00;5076893;28;20070;-80
2022/05/29 10:28:34;;;;;;;9.52;3.58;;;;;;;13.28;100.00;101193.00;5079848;28;20623;-79
2022/05/29 10:31:10;;;;;;;7.75;2.50;;;;;;;13.29;100.00;101194.72;5083300;28;20039;-80
2022/05/29 10:33:36;;;;;;;10.55;2.78;;;;;;;13.11;100.00;101194.41;5104911;28;20028;-81
2022/05/29 10:36:14;;;;;;;16.80;4.25;;;;;;;13.53;100.00;101190.91;5092278;28;20090;-81
2022/05/29 10:38:41;;;;;;;14.30;2.78;;;;;;;13.88;100.00;101193.31;5095338;28;20028;-82
2022/05/29 10:41:10;;;;;;;11.25;2.90;;;;;;;14.84;100.00;101191.19;5094720;28;20111;-81
2022/05/29 10:43:46;;;;;;;9.73;2.00;;;;;;;15.11;100.00;101184.13;5097438;28;20426;-83
2022/05/29 10:46:16;;;;;;;7.97;1.80;;;;;;;15.30;100.00;101185.16;5094740;28;20471;-82
2022/05/29 10:49:34;;;;;;;9.95;2.30;;;;;;;15.59;100.00;101191.56;5097449;28;20033;-82
2022/05/29 10:52:22;;;;;;;5.03;2.03;;;;;;;16.15;100.00;101177.97;5092144;28;20054;-81
2022/05/29 10:55:17;;;;;;;5.80;2.00;;;;;;;16.68;100.00;101165.41;5093571;28;20075;-82
2022/05/29 10:58:10;;;;;;;8.77;1.90;;;;;;;17.05;100.00;101168.13;5081640;28;20033;-81
2022/05/29 11:00:52;;;;;;;6.50;2.55;;;;;;;16.63;100.00;101171.38;5088670;28;20036;-81
2022/05/29 11:03:33;;;;;;;7.38;1.92;;;;;;;17.39;100.00;101174.84;5098000;28;20032;-81
2022/05/29 11:06:24;;;;;;;8.93;1.90;;;;;;;16.03;100.00;101184.69;5089181;28;20063;-79
2022/05/29 11:09:15;;;;;;;7.28;1.35;;;;;;;14.88;100.00;101198.16;5097694;28;20024;-80
2022/05/29 11:11:41;;;;;;;5.05;0.80;;;;;;;13.26;100.00;101186.72;5092689;28;20022;-79
2022/05/29 11:14:38;;;;;;;5.97;1.00;;;;;;;12.68;100.00;101198.00;5093685;28;20047;-82
2022/05/29 11:17:22;;;;;;;6.65;1.25;;;;;;;12.45;100.00;101197.16;5098762;28;20086;-79
2022/05/29 11:20:54;;;;;;;6.65;0.88;;;;;;;12.10;100.00;101203.59;5100910;28;20136;-79
2022/05/29 11:23:38;;;;;;;6.57;1.20;;;;;;;11.67;100.00;101198.75;5011382;28;20070;-79
2022/05/29 11:26:16;;;;;;;6.40;0.90;;;;;;;11.62;100.00;101199.09;5085699;28;20071;-80
2022/05/29 11:29:22;;;;;;;6.97;0.90;;;;;;;11.45;100.00;101186.72;5077712;28;20032;-79
2022/05/29 11:32:04;;;;;;;2.92;0.70;;;;;;;11.17;100.00;101188.84;5074975;28;20595;-79
2022/05/29 11:34:35;;;;;;;2.38;0.82;;;;;;;11.30;100.00;101174.22;5077239;28;20055;-80
2022/05/29 11:37:23;;;;;;;5.03;1.05;;;;;;;11.26;100.00;101184.50;5072650;28;20032;-79
2022/05/29 11:40:25;;;;;;;2.55;0.80;;;;;;;11.24;100.00;101170.06;5081698;28;20012;-79
2022/05/29 11:43:02;;;;;;;4.82;0.90;;;;;;;11.37;100.00;101172.72;5081678;28;20067;-78
2022/05/29 11:52:04;;;;;;;2.08;1.13;;;;;;;11.75;100.00;101164.22;5094029;28;20043;-78
2022/05/29 11:54:50;;;;;;;;;;;;;;;11.99;100.00;101168.78;5091174;28;20028;-79
2022/05/29 11:57:44;;;;;;;5.85;0.80;;;;;;;12.21;100.00;101164.31;5092049;28;19912;-80
2022/05/29 12:00:25;;;;;;;;;;;;;;;12.29;100.00;101159.06;5088609;28;20036;-78
2022/05/29 12:03:12;;;;;;;4.55;1.10;;;;;;;12.84;100.00;101157.25;5092566;28;19916;-79
2022/05/29 12:05:47;;;;;;;6.03;1.80;;;;;;;13.11;100.00;101161.41;5071898;28;20056;-80
2022/05/29 12:08:31;;;;;;;4.13;1.08;;;;;;;13.53;100.00;101152.41;5080900;28;20047;-80
2022/05/29 12:11:27;;;;;;;2.90;0.75;;;;;;;13.63;100.00;101157.97;5075370;28;20103;-80
2022/05/29 12:13:57;;;;;;;10.27;1.23;;;;;;;13.55;100.00;101151.25;5083172;28;20042;-78
2022/05/29 12:16:32;;;;;;;2.45;1.02;;;;;;;13.48;100.00;101140.88;5092178;28;20040;-79
2022/05/29 12:19:03;;;;;;;3.75;0.95;;;;;;;13.20;100.00;101137.78;5074335;28;20046;-78